Time;durP1;ratioP1;P1;durP2;ratioP2;P2;SDS_P1;SDS_P2;PMS_P1;PMS_P2;Temp;Humidity;BMP_temperature;BMP_pressure;BME280_temperature;BME280_humidity;BME280_pressure;Samples;Min_cycle;Max_cycle;Signal;HPM_P1;HPM_P2
2023/12/04 00:01:46;;;;;;;3.72;3.30;;;;;;;20.09;45.42;101204.75;41312347;28;20035;-77
2023/12/04 00:21:47;;;;;;;4.30;3.40;;;;;;;20.07;45.15;101197.91;41345250;28;20054;-75
2023/12/04 00:41:47;;;;;;;3.47;3.17;;;;;;;20.07;45.22;101192.63;41331351;28;20050;-77
2023/12/04 01:01:48;;;;;;;3.60;3.30;;;;;;;20.08;45.24;101213.56;41354433;28;20136;-75
2023/12/04 01:21:48;;;;;;;3.78;3.38;;;;;;;20.09;44.88;101204.75;41343688;28;20161;-75
2023/12/04 01:41:49;;;;;;;4.38;3.38;;;;;;;20.02;45.00;101203.41;41393959;28;20096;-76
2023/12/04 02:01:49;;;;;;;3.30;3.00;;;;;;;20.02;44.99;101219.19;41339093;28;20053;-75
2023/12/04 02:43:00;;;;;;;3.55;3.25;;;;;;;20.02;44.71;101227.09;41334047;28;20512;-74
2023/12/04 03:03:00;;;;;;;4.05;3.42;;;;;;;19.99;44.48;101225.47;41342955;28;20142;-76
2023/12/04 03:23:01;;;;;;;3.42;3.13;;;;;;;20.00;44.59;101242.91;41352971;28;20046;-74
2023/12/04 03:43:01;;;;;;;3.72;3.30;;;;;;;19.98;44.47;101252.69;41318330;28;20478;-76
2023/12/04 04:03:01;;;;;;;3.40;3.10;;;;;;;19.95;44.28;101254.66;41325454;28;20062;-75
2023/12/04 04:23:02;;;;;;;3.20;2.90;;;;;;;19.94;44.48;101234.56;41272535;28;20717;-75
2023/12/04 04:43:02;;;;;;;3.65;3.33;;;;;;;19.98;44.35;101238.69;41317191;28;20042;-76
2023/12/04 05:03:03;;;;;;;5.15;3.47;;;;;;;20.07;44.07;101246.06;41307709;28;20064;-74
2023/12/04 05:23:03;;;;;;;4.68;3.30;;;;;;;20.61;43.48;101248.06;41391759;28;20045;-77
2023/12/04 05:43:03;;;;;;;3.55;3.25;;;;;;;20.69;43.41;101258.16;41429410;28;20046;-75
2023/12/04 06:03:04;;;;;;;5.65;3.38;;;;;;;20.84;43.60;101261.63;41429731;28;20062;-74
2023/12/04 06:23:05;;;;;;;6.57;3.58;;;;;;;20.70;43.40;101267.72;41460572;28;20077;-76
2023/12/04 06:43:05;;;;;;;4.85;3.30;;;;;;;20.80;43.31;101286.47;41446634;28;20056;-74
2023/12/04 07:03:06;;;;;;;6.97;4.00;;;;;;;20.81;43.40;101284.66;41407877;28;20046;-74
2023/12/04 07:23:06;;;;;;;6.78;4.00;;;;;;;20.87;43.42;101303.59;41368175;28;20053;-75
2023/12/04 07:43:07;;;;;;;9.95;4.90;;;;;;;20.92;43.17;101308.53;41335061;28;20074;-75
2023/12/04 08:03:07;;;;;;;21.30;15.52;;;;;;;11.76;31.95;101349.63;41392812;28;20050;-76
2023/12/04 08:23:08;;;;;;;21.58;13.05;;;;;;;18.29;30.64;101323.03;41360896;28;20487;-78
2023/12/04 08:43:08;;;;;;;14.57;10.27;;;;;;;19.49;34.33;101318.53;41310806;28;20134;-76
2023/12/04 09:03:12;;;;;;;26.90;13.38;;;;;;;19.97;38.18;101315.88;41357464;28;20077;-77
2023/12/04 09:23:12;;;;;;;28.52;14.00;;;;;;;20.18;39.18;101320.81;41410718;28;20049;-78
2023/12/04 09:43:14;;;;;;;21.58;13.07;;;;;;;20.58;39.09;101295.63;41349964;28;20120;-77
2023/12/04 10:03:15;;;;;;;20.83;13.65;;;;;;;20.81;39.00;101264.44;41359842;28;20042;-77
2023/12/04 10:23:15;;;;;;;22.98;14.50;;;;;;;20.99;38.58;101227.41;41349204;28;20090;-75
2023/12/04 10:43:21;;;;;;;18.60;12.88;;;;;;;21.17;38.85;101199.06;41348012;28;20062;-76
2023/12/04 11:03:32;;;;;;;17.63;12.68;;;;;;;21.33;38.67;101186.56;41357409;28;20069;-77
2023/12/04 11:23:34;;;;;;;17.60;12.30;;;;;;;21.52;38.83;101159.00;41322571;28;20034;-77
2023/12/04 11:43:35;;;;;;;16.30;12.23;;;;;;;21.69;38.55;101131.53;41311283;28;20042;-77
2023/12/04 12:03:36;;;;;;;13.88;10.95;;;;;;;21.83;38.38;101113.00;41320412;28;20573;-77
2023/12/04 12:23:38;;;;;;;12.25;9.73;;;;;;;21.84;38.62;101079.56;41383856;28;20049;-77
2023/12/04 12:43:38;;;;;;;16.92;9.60;;;;;;;21.68;38.46;101030.53;41434414;28;20061;-76
2023/12/04 13:03:47;;;;;;;12.10;8.93;;;;;;;21.61;38.99;101033.72;41477889;28;20445;-75
2023/12/04 13:23:47;;;;;;;10.98;8.90;;;;;;;21.31;39.27;101024.28;41470618;28;20143;-74
2023/12/04 13:43:50;;;;;;;9.80;8.13;;;;;;;21.15;39.50;101008.69;41465026;28;20070;-72
2023/12/04 14:03:52;;;;;;;9.13;7.38;;;;;;;21.04;39.86;100996.25;41325681;28;20050;-76
2023/12/04 14:23:52;;;;;;;19.20;8.20;;;;;;;20.95;40.92;101002.97;41339498;28;20046;-76
2023/12/04 14:43:54;;;;;;;14.55;8.10;;;;;;;20.94;41.31;100969.69;41351863;28;20074;-75
2023/12/04 15:24:13;;;;;;;11.77;7.72;;;;;;;20.73;42.21;100962.28;41357838;28;20057;-75
2023/12/04 15:44:14;;;;;;;10.82;6.45;;;;;;;20.66;42.45;100947.81;41333821;28;20049;-78
2023/12/04 16:04:15;;;;;;;8.07;6.10;;;;;;;20.56;42.35;100938.84;41340693;28;20081;-74
2023/12/04 16:24:15;;;;;;;9.13;6.40;;;;;;;20.46;42.00;100925.44;41345842;28;20129;-77
2023/12/04 16:44:18;;;;;;;8.35;5.93;;;;;;;20.33;42.53;100930.66;41360488;28;20049;-75
2023/12/04 17:04:19;;;;;;;7.47;5.70;;;;;;;20.28;42.19;100896.75;41343324;28;20046;-77
2023/12/04 17:24:19;;;;;;;6.97;5.68;;;;;;;20.18;41.86;100890.44;41319022;28;20053;-78
2023/12/04 17:44:20;;;;;;;7.28;5.60;;;;;;;20.15;42.43;100890.63;41312291;28;20061;-80
2023/12/04 18:04:21;;;;;;;9.25;5.13;;;;;;;20.14;42.81;100888.94;41356547;28;20041;-75
2023/12/04 18:24:21;;;;;;;7.68;4.78;;;;;;;20.06;42.40;100870.22;41347158;28;20041;-75
2023/12/04 18:44:23;;;;;;;6.55;5.00;;;;;;;20.03;42.46;100823.06;41343338;28;20038;-75
2023/12/04 19:04:23;;;;;;;9.20;5.30;;;;;;;19.95;43.32;100826.22;41353368;28;20091;-75
2023/12/04 19:24:24;;;;;;;12.07;5.93;;;;;;;19.97;42.94;100791.00;41382196;28;20132;-75
2023/12/04 19:44:25;;;;;;;7.00;5.50;;;;;;;19.86;43.10;100795.25;41277813;28;20359;-75
2023/12/04 20:04:27;;;;;;;9.10;5.40;;;;;;;20.01;43.22;100744.31;41338492;28;20088;-73
2023/12/04 20:24:28;;;;;;;10.38;5.43;;;;;;;20.11;43.46;100740.13;41329000;28;20050;-74
2023/12/04 20:44:28;;;;;;;9.93;5.22;;;;;;;20.30;42.47;100725.75;41324014;28;20050;-74
2023/12/04 21:04:29;;;;;;;6.45;4.78;;;;;;;20.26;42.60;100711.97;41319111;28;20408;-75
2023/12/04 21:24:30;;;;;;;7.93;4.82;;;;;;;20.19;42.74;100684.41;41282334;28;22030;-74
2023/12/04 21:44:30;;;;;;;7.85;5.25;;;;;;;20.15;42.77;100672.41;41350841;28;20050;-75
2023/12/04 22:04:32;;;;;;;6.72;4.95;;;;;;;20.09;42.37;100649.16;41349833;28;20049;-75
2023/12/04 22:24:32;;;;;;;5.80;5.15;;;;;;;20.13;42.77;100611.22;41369706;28;20038;-74
2023/12/04 22:44:35;;;;;;;7.18;4.95;;;;;;;20.19;42.49;100595.00;41385052;28;20494;-74
2023/12/04 23:04:35;;;;;;;5.65;4.93;;;;;;;20.15;42.51;100575.13;41353499;28;20042;-74
2023/12/04 23:24:35;;;;;;;6.55;5.53;;;;;;;20.10;42.38;100564.94;41363502;28;20050;-75
2023/12/04 23:44:40;;;;;;;5.95;5.18;;;;;;;20.15;42.14;100543.56;41321042;28;20088;-74
